RJCM(METAR)
07/17 15:00
METAR RJCM 170600Z 16015KT 9999 FEW015 BKN/// 26/18 Q1012 RMK 1ST015
A2991=
戻る
トップページへ戻る
IMOC Co,.Ltd.